International Virtual Aviation Organisation

Russian Federation and Kazakhstan MCD

 
UHMM 250530Z 33004MPS 290V360 9999 FEW040 M11/M23 Q0992 R10/92//50 NOSIG RMK QFE729 R28/03004MPS
QNH:(hPa/inHg/mmHg)992 / 29.29 / 744
QFE:(hPa/inHg/mmHg)971 / 28.67 / 728
Temperature-11
Dew Point-23
Visibility> 10000
Weather
Cloud CoverFEW (4000);
Transition Height2150 m./7700 ft.
Transition LevelFL100
SQUAWK